Time;durP1;ratioP1;P1;durP2;ratioP2;P2;SDS_P1;SDS_P2;PMS_P1;PMS_P2;Temp;Humidity;BMP_temperature;BMP_pressure;BME280_temperature;BME280_humidity;BME280_pressure;Samples;Min_cycle;Max_cycle;Signal;HPM_P1;HPM_P2
2022/07/30 00:02:03;;;;;;;;;5.00;5.00;;;;;24.58;34.23;101342.66;5017370;28;45614;-67
2022/07/30 00:04:29;;;;;;;;;8.00;5.00;;;;;24.69;34.56;101381.06;5032407;28;47340;-65
2022/07/30 00:06:54;;;;;;;;;4.67;4.67;;;;;24.56;34.91;101371.13;5017212;28;45330;-67
2022/07/30 00:09:20;;;;;;;;;6.33;6.33;;;;;24.48;35.07;101371.41;5017233;28;45296;-65
2022/07/30 00:11:45;;;;;;;;;5.67;5.67;;;;;24.44;34.80;101371.03;5017600;28;45522;-65
2022/07/30 00:14:11;;;;;;;;;6.00;6.00;;;;;24.55;35.15;101381.16;5015882;28;46471;-65
2022/07/30 00:16:37;;;;;;;;;5.00;5.00;;;;;24.62;34.79;101391.16;5032210;28;45357;-65
2022/07/30 00:19:02;;;;;;;;;5.00;5.00;;;;;24.63;34.66;101381.94;5017103;28;45312;-64
2022/07/30 00:21:28;;;;;;;;;4.00;4.00;;;;;24.48;34.67;101353.22;5017244;28;45202;-64
2022/07/30 00:23:54;;;;;;;;;4.00;4.00;;;;;24.50;34.98;101359.25;5032102;28;48381;-65
2022/07/30 00:26:19;;;;;;;;;6.67;4.33;;;;;24.61;34.96;101378.59;5017046;28;45396;-64
2022/07/30 00:28:44;;;;;;;;;5.33;5.33;;;;;24.63;34.91;101384.66;5016894;28;45222;-64
2022/07/30 00:31:10;;;;;;;;;3.67;1.33;;;;;24.57;35.44;101361.91;5032671;28;45554;-65
2022/07/30 00:33:35;;;;;;;;;5.67;4.33;;;;;24.60;35.27;101379.66;5016681;28;46320;-64
2022/07/30 00:36:01;;;;;;;;;6.67;4.67;;;;;24.53;35.79;101366.97;5016666;28;45277;-64
2022/07/30 00:38:26;;;;;;;;;4.67;4.67;;;;;24.45;35.59;101363.69;5017140;28;45469;-64
2022/07/30 00:40:52;;;;;;;;;5.33;5.00;;;;;24.30;35.86;101358.56;5016998;28;45335;-65
2022/07/30 00:43:18;;;;;;;;;3.67;3.67;;;;;23.74;36.28;101271.56;5015327;28;48504;-64
2022/07/30 00:45:43;;;;;;;;;7.00;7.00;;;;;24.31;35.99;101367.56;5016802;28;45413;-65
2022/07/30 00:48:10;;;;;;;;;5.00;5.00;;;;;24.19;36.34;101349.19;5016893;28;45233;-65
2022/07/30 00:50:36;;;;;;;;;7.00;4.33;;;;;24.38;36.28;101369.16;5032156;28;45388;-65
2022/07/30 00:53:06;;;;;;;;;4.00;4.00;;;;;24.16;35.77;101324.34;5016305;28;46444;-65
2022/07/30 00:55:32;;;;;;;;;5.00;5.00;;;;;24.38;35.85;101357.47;5020126;28;45351;-65
2022/07/30 00:57:58;;;;;;;;;4.00;4.00;;;;;24.32;36.49;101342.03;5020324;28;45463;-65
2022/07/30 01:00:24;;;;;;;;;4.67;4.33;;;;;24.32;36.41;101347.47;5020955;28;45485;-65
2022/07/30 01:02:49;;;;;;;;;6.67;4.00;;;;;23.82;36.17;101277.53;5018758;28;48582;-64
2022/07/30 01:05:14;;;;;;;;;5.00;5.00;;;;;24.40;36.40;101360.78;5020023;28;45454;-64
2022/07/30 01:07:41;;;;;;;;;3.67;3.67;;;;;24.45;36.16;101360.97;5020264;28;45312;-65
2022/07/30 01:10:08;;;;;;;;;5.67;5.00;;;;;24.00;36.69;101289.56;5020363;28;45541;-64
2022/07/30 01:12:34;;;;;;;;;5.67;5.00;;;;;24.25;36.73;101342.06;5019845;28;46631;-64
2022/07/30 01:15:03;;;;;;;;;5.67;5.67;;;;;24.24;37.39;101351.28;5019926;28;45273;-65
2022/07/30 01:17:29;;;;;;;;;6.67;6.67;;;;;23.66;36.84;101261.78;5019894;28;45586;-65
2022/07/30 01:20:04;;;;;;;;;5.33;5.33;;;;;24.06;37.77;101351.16;5035381;28;45396;-64
2022/07/30 01:22:42;;;;;;;;;4.67;4.67;;;;;23.24;38.19;101223.34;5019589;28;47993;-64
2022/07/30 01:25:19;;;;;;;;;8.00;5.33;;;;;24.00;37.88;101333.84;5018174;28;45472;-65
2022/07/30 01:27:51;;;;;;;;;7.00;7.00;;;;;24.18;37.70;101358.38;5018423;28;45556;-65
2022/07/30 01:30:20;;;;;;;;;6.00;5.00;;;;;24.19;37.91;101364.66;5020013;28;45489;-65
2022/07/30 01:32:46;;;;;;;;;7.33;6.33;;;;;24.09;38.37;101367.03;5019559;28;45534;-64
2022/07/30 01:35:13;;;;;;;;;7.00;6.67;;;;;24.00;38.26;101357.47;5019473;28;45361;-65
2022/07/30 01:37:41;;;;;;;;;10.67;8.67;;;;;24.02;38.32;101360.78;5019699;28;45613;-65
2022/07/30 01:40:07;;;;;;;;;10.00;8.67;;;;;23.99;38.95;101359.34;5019830;28;45442;-65
2022/07/30 01:42:35;;;;;;;;;7.33;6.00;;;;;23.86;38.92;101348.56;5018044;28;48542;-64
2022/07/30 01:45:02;;;;;;;;;9.00;9.00;;;;;23.87;39.31;101361.09;5019365;28;45446;-64
2022/07/30 01:47:29;;;;;;;;;9.00;9.00;;;;;23.82;39.47;101363.59;5019641;28;45379;-64
2022/07/30 01:49:56;;;;;;;;;9.00;7.67;;;;;23.15;39.27;101246.31;5019225;28;45335;-64
2022/07/30 01:52:23;;;;;;;;;7.00;7.00;;;;;23.80;39.28;101358.38;5019177;28;45862;-65
2022/07/30 01:54:51;;;;;;;;;8.00;8.00;;;;;23.69;39.36;101342.78;5019446;28;45332;-67
2022/07/30 01:57:19;;;;;;;;;7.00;6.00;;;;;23.83;39.25;101365.28;5018090;28;45353;-66
2022/07/30 01:59:49;;;;;;;;;7.33;7.33;;;;;23.85;38.87;101357.75;5019457;28;45470;-65
2022/07/30 02:02:14;;;;;;;;;8.00;7.00;;;;;23.84;39.11;101367.78;5019159;28;46592;-65
2022/07/30 02:04:40;;;;;;;;;7.67;6.67;;;;;23.78;39.30;101346.91;5017763;28;45284;-65
2022/07/30 02:07:19;;;;;;;;;9.33;8.33;;;;;23.70;39.35;101343.63;5034764;28;45318;-65
2022/07/30 02:09:58;;;;;;;;;7.67;7.00;;;;;23.77;39.54;101368.84;5034597;28;45298;-66
2022/07/30 02:12:28;;;;;;;;;8.00;8.00;;;;;23.58;39.68;101332.59;5017699;28;46494;-65
2022/07/30 02:14:59;;;;;;;;;8.67;7.67;;;;;23.66;39.67;101348.66;5018870;28;45382;-65
2022/07/30 02:17:31;;;;;;;;;7.67;6.00;;;;;23.67;39.80;101358.47;5019111;28;45246;-67
2022/07/30 02:19:59;;;;;;;;;4.00;4.00;;;;;23.56;40.04;101349.09;5019279;28;45211;-64
2022/07/30 02:22:27;;;;;;;;;9.67;8.00;;;;;23.64;40.54;101361.63;5033943;28;45625;-64
2022/07/30 02:24:56;;;;;;;;;7.67;6.67;;;;;23.55;39.80;101347.41;5033994;28;45310;-65
2022/07/30 02:27:27;;;;;;;;;7.67;7.00;;;;;23.51;40.24;101345.34;5018931;28;45320;-64
2022/07/30 02:29:56;;;;;;;;;6.67;6.67;;;;;23.45;40.62;101344.31;5019035;28;45333;-65
2022/07/30 02:32:25;;;;;;;;;10.00;10.00;;;;;23.46;40.78;101345.16;5018725;28;45613;-64
2022/07/30 02:34:55;;;;;;;;;11.00;9.67;;;;;23.36;41.05;101348.31;5018614;28;45562;-64
2022/07/30 02:37:23;;;;;;;;;6.33;6.33;;;;;23.32;41.26;101357.94;5018512;28;45474;-64
2022/07/30 02:39:50;;;;;;;;;6.33;6.33;;;;;23.30;41.32;101351.88;5019055;28;45274;-65
2022/07/30 02:42:18;;;;;;;;;8.33;6.00;;;;;23.20;41.37;101346.88;5018432;28;46509;-64
2022/07/30 02:44:46;;;;;;;;;7.00;7.00;;;;;23.18;41.65;101329.97;5016964;28;45478;-64
2022/07/30 02:47:15;;;;;;;;;6.00;5.67;;;;;23.24;41.18;101345.44;5018557;28;45278;-64
2022/07/30 02:49:43;;;;;;;;;6.33;6.33;;;;;23.12;41.65;101327.31;5033786;28;45246;-65
2022/07/30 02:52:12;;;;;;;;;5.67;5.67;;;;;23.22;41.37;101336.66;5018349;28;47729;-65
2022/07/30 02:54:40;;;;;;;;;5.33;5.33;;;;;23.23;41.42;101337.50;5018319;28;45274;-65
2022/07/30 02:57:08;;;;;;;;;9.00;9.00;;;;;22.64;41.43;101238.94;5018251;28;45467;-65
2022/07/30 02:59:36;;;;;;;;;10.33;7.00;;;;;22.80;41.25;101272.88;5016981;28;45417;-64
2022/07/30 03:02:03;;;;;;;;;8.00;8.00;;;;;23.22;41.38;101355.63;5017989;28;45868;-65
2022/07/30 03:04:30;;;;;;;;;8.00;6.00;;;;;23.13;41.36;101348.78;5033297;28;45494;-65
2022/07/30 03:06:57;;;;;;;;;6.67;6.67;;;;;23.18;41.57;101359.81;5018286;28;45265;-65
2022/07/30 03:09:23;;;;;;;;;6.33;5.33;;;;;23.18;41.54;101351.69;5017030;28;45536;-64
2022/07/30 03:11:51;;;;;;;;;7.33;7.33;;;;;23.15;41.35;101352.13;5017922;28;45682;-63
2022/07/30 03:14:16;;;;;;;;;8.33;8.33;;;;;23.05;42.00;101332.75;5033201;28;46286;-64
2022/07/30 03:16:46;;;;;;;;;8.00;6.33;;;;;23.13;41.57;101354.22;5017674;28;45389;-64
2022/07/30 03:19:15;;;;;;;;;6.00;6.00;;;;;23.03;42.11;101337.56;5018395;28;45478;-65
2022/07/30 03:21:42;;;;;;;;;7.33;5.33;;;;;23.06;42.07;101350.69;5033060;28;47892;-63
2022/07/30 03:24:09;;;;;;;;;7.00;6.33;;;;;22.86;42.05;101320.06;5017875;28;45275;-63
2022/07/30 03:26:35;;;;;;;;;8.67;7.33;;;;;23.04;42.04;101347.34;5017990;28;45472;-64
2022/07/30 03:29:02;;;;;;;;;5.67;4.67;;;;;22.89;42.01;101328.59;5017754;28;45706;-65
2022/07/30 03:31:29;;;;;;;;;7.00;5.67;;;;;23.00;41.82;101348.81;5017515;28;46163;-65
2022/07/30 03:33:54;;;;;;;;;5.33;5.33;;;;;22.95;42.06;101330.47;5016372;28;46599;-64
2022/07/30 03:36:19;;;;;;;;;7.00;7.00;;;;;23.00;41.77;101335.25;5017693;28;45390;-65
2022/07/30 03:38:47;;;;;;;;;7.00;7.00;;;;;22.92;41.81;101319.22;5017900;28;45446;-65
2022/07/30 03:41:13;;;;;;;;;7.00;7.00;;;;;22.96;41.92;101325.88;5032810;28;48017;-64
2022/07/30 03:43:39;;;;;;;;;7.00;7.00;;;;;22.91;41.73;101322.97;5017194;28;45170;-63
2022/07/30 03:46:06;;;;;;;;;4.67;4.67;;;;;22.92;41.71;101319.22;5016264;28;45526;-64
2022/07/30 03:48:34;;;;;;;;;6.67;6.67;;;;;23.03;42.04;101337.56;5017580;28;45455;-64
2022/07/30 03:51:02;;;;;;;;;9.33;8.00;;;;;22.85;41.83;101321.09;5017237;28;46152;-64
2022/07/30 03:53:28;;;;;;;;;8.33;7.67;;;;;22.80;41.94;101326.28;5017462;28;45305;-64
2022/07/30 03:55:54;;;;;;;;;5.33;5.33;;;;;22.90;42.09;101343.00;5017527;28;45192;-64
2022/07/30 03:58:20;;;;;;;;;10.33;7.33;;;;;22.97;42.41;101360.06;5017744;28;45271;-65
2022/07/30 04:00:48;;;;;;;;;7.67;7.00;;;;;22.99;42.28;101369.66;5017069;28;46737;-64
2022/07/30 04:03:23;;;;;;;;;6.00;6.00;;;;;22.88;41.90;101355.94;5017225;28;45309;-64
2022/07/30 04:05:48;;;;;;;;;8.00;7.00;;;;;22.43;42.27;101271.69;5016979;28;45311;-64
2022/07/30 04:08:14;;;;;;;;;7.67;7.33;;;;;22.91;42.16;101359.03;5016082;28;45460;-65
2022/07/30 04:10:39;;;;;;;;;7.33;7.00;;;;;22.83;42.23;101359.28;5017214;28;47371;-65
2022/07/30 04:13:04;;;;;;;;;7.33;7.33;;;;;22.77;42.46;101350.03;5017319;28;45306;-63
2022/07/30 04:15:36;;;;;;;;;8.00;6.67;;;;;22.87;42.48;101355.09;5017004;28;45410;-63
2022/07/30 04:18:04;;;;;;;;;9.00;6.00;;;;;22.85;42.31;101350.94;5017533;28;45530;-65
2022/07/30 04:20:40;;;;;;;;;6.00;6.00;;;;;22.61;42.40;101326.06;5016948;28;46707;-64
2022/07/30 04:23:06;;;;;;;;;8.00;7.67;;;;;22.57;42.66;101322.13;5016907;28;45565;-64
2022/07/30 04:25:33;;;;;;;;;6.67;6.67;;;;;22.73;42.64;101347.97;5017085;28;45284;-64
2022/07/30 04:27:58;;;;;;;;;7.33;7.33;;;;;22.27;42.58;101272.94;5016008;28;45253;-64
2022/07/30 04:30:24;;;;;;;;;6.67;6.67;;;;;22.62;42.30;101333.16;5016705;28;46480;-65
2022/07/30 04:32:49;;;;;;;;;7.67;7.67;;;;;22.84;42.48;101377.22;5032156;28;45297;-65
2022/07/30 04:35:15;;;;;;;;;11.33;9.67;;;;;22.80;42.66;101369.66;5017213;28;45403;-64
2022/07/30 04:37:40;;;;;;;;;7.33;7.33;;;;;22.82;42.70;101383.84;5017221;28;45249;-65
2022/07/30 04:40:06;;;;;;;;;7.33;7.33;;;;;22.45;42.57;101318.38;5016622;28;45693;-64
2022/07/30 04:42:31;;;;;;;;;9.67;9.67;;;;;22.76;42.48;101356.50;5016986;28;45363;-64
2022/07/30 04:44:57;;;;;;;;;6.33;6.33;;;;;22.89;42.28;101368.44;5015663;28;45292;-64
2022/07/30 04:47:23;;;;;;;;;13.00;10.33;;;;;22.88;42.48;101366.78;5017062;28;45462;-65
2022/07/30 04:49:51;;;;;;;;;8.33;5.67;;;;;22.83;42.63;101363.88;5015398;28;47383;-65
2022/07/30 04:52:17;;;;;;;;;8.67;7.33;;;;;22.91;42.45;101366.34;5016406;28;45230;-64
2022/07/30 04:54:50;;;;;;;;;8.33;8.33;;;;;22.90;42.78;101370.09;5016871;28;45521;-64
2022/07/30 04:57:16;;;;;;;;;10.33;9.67;;;;;22.65;42.45;101340.06;5016929;28;45596;-65
2022/07/30 04:59:42;;;;;;;;;10.67;8.00;;;;;22.87;42.38;101392.22;5016284;28;46603;-64
2022/07/30 05:02:10;;;;;;;;;12.33;11.00;;;;;22.32;42.63;101280.44;5016446;28;45154;-65
2022/07/30 05:04:37;;;;;;;;;11.67;10.67;;;;;22.94;42.30;101383.03;5016557;28;45317;-65
2022/07/30 05:07:04;;;;;;;;;12.67;11.00;;;;;22.52;42.39;101319.22;5016505;28;45563;-64
2022/07/30 05:09:30;;;;;;;;;12.33;10.67;;;;;22.90;42.43;101378.25;5016423;28;46534;-64
2022/07/30 05:11:56;;;;;;;;;11.33;11.33;;;;;22.90;42.74;101380.94;5016142;28;45484;-66
2022/07/30 05:14:23;;;;;;;;;10.33;9.00;;;;;22.93;42.61;101394.09;5016542;28;45249;-65
2022/07/30 05:16:49;;;;;;;;;12.00;11.33;;;;;22.87;42.58;101365.09;5016561;28;45339;-65
2022/07/30 05:19:15;;;;;;;;;11.00;9.33;;;;;22.99;42.30;101383.22;5015878;28;45669;-64
2022/07/30 05:21:41;;;;;;;;;10.00;9.33;;;;;22.51;42.61;101297.75;5016338;28;45311;-65
2022/07/30 05:24:06;;;;;;;;;15.33;11.33;;;;;22.97;42.41;101384.47;5016316;28;45284;-65
2022/07/30 05:26:32;;;;;;;;;12.33;11.67;;;;;22.98;42.24;101394.28;5016565;28;45462;-66
2022/07/30 05:28:57;;;;;;;;;9.67;8.00;;;;;23.00;42.21;101395.72;5015907;28;45642;-66
2022/07/30 05:31:24;;;;;;;;;9.33;8.67;;;;;22.99;42.09;101390.53;5014871;28;46044;-64
2022/07/30 05:33:49;;;;;;;;;10.00;10.00;;;;;23.09;42.32;101411.81;5016304;28;45359;-65
2022/07/30 05:36:14;;;;;;;;;9.67;9.67;;;;;23.13;42.36;101394.06;5016294;28;45328;-65
2022/07/30 05:38:40;;;;;;;;;10.00;10.00;;;;;23.14;41.92;101393.84;5016524;28;46900;-64
2022/07/30 05:41:05;;;;;;;;;9.00;8.67;;;;;23.19;42.37;101396.75;5019169;28;45302;-64
2022/07/30 05:43:31;;;;;;;;;10.33;9.00;;;;;23.09;42.00;101390.94;5019514;28;45294;-65
2022/07/30 05:45:56;;;;;;;;;11.67;11.00;;;;;23.13;42.37;101394.06;5019543;28;45271;-66
2022/07/30 05:48:22;;;;;;;;;7.33;7.33;;;;;23.02;42.07;101368.41;5019218;28;46475;-66
2022/07/30 05:50:47;;;;;;;;;9.00;9.00;;;;;23.04;41.93;101379.91;5019176;28;45501;-65
2022/07/30 05:53:13;;;;;;;;;9.33;8.00;;;;;23.22;41.72;101409.91;5019554;28;45290;-65
2022/07/30 05:55:38;;;;;;;;;8.33;7.00;;;;;23.28;41.94;101400.94;5019757;28;45262;-65
2022/07/30 05:58:03;;;;;;;;;8.00;8.00;;;;;23.24;41.63;101394.28;5019145;28;46404;-65
2022/07/30 06:00:29;;;;;;;;;8.00;8.00;;;;;23.30;41.59;101381.72;5019474;28;45314;-65
2022/07/30 06:02:54;;;;;;;;;9.00;7.33;;;;;23.50;41.28;101403.38;5019393;28;45460;-65
2022/07/30 06:05:20;;;;;;;;;10.33;9.00;;;;;23.54;41.60;101405.44;5019723;28;45228;-64
2022/07/30 06:07:46;;;;;;;;;6.00;3.67;;;;;23.45;41.30;101389.63;5018993;28;45750;-65
2022/07/30 06:10:11;;;;;;;;;7.00;7.00;;;;;23.00;41.41;101318.97;5018952;28;45273;-64
2022/07/30 06:12:37;;;;;;;;;10.00;9.67;;;;;23.59;41.20;101385.84;5019335;28;45609;-65
2022/07/30 06:15:02;;;;;;;;;10.00;6.67;;;;;23.75;40.84;101400.81;5019248;28;45437;-64
2022/07/30 06:17:28;;;;;;;;;9.00;9.00;;;;;24.32;40.40;101402.66;5018863;28;46233;-64
2022/07/30 06:19:53;;;;;;;;;13.33;10.33;;;;;25.10;38.70;101405.00;5018676;28;45530;-65
2022/07/30 06:22:19;;;;;;;;;9.00;9.00;;;;;25.93;37.43;101393.63;5019159;28;45555;-64
2022/07/30 06:24:44;;;;;;;;;9.33;9.33;;;;;26.91;35.80;101401.41;5017663;28;45325;-64
2022/07/30 06:27:10;;;;;;;;;12.33;10.33;;;;;27.72;34.58;101407.91;5017449;28;47696;-65
2022/07/30 06:29:36;;;;;;;;;10.33;7.33;;;;;28.41;33.26;101384.13;5018688;28;45253;-65
2022/07/30 06:32:02;;;;;;;;;9.33;9.33;;;;;29.03;31.42;101387.66;5018823;28;45378;-65
2022/07/30 06:34:27;;;;;;;;;8.67;8.00;;;;;29.48;30.34;101388.56;5018889;28;45746;-65
2022/07/30 06:36:53;;;;;;;;;7.00;7.00;;;;;29.84;30.69;101389.84;5017119;28;47407;-65
2022/07/30 06:39:18;;;;;;;;;9.67;7.33;;;;;29.85;29.60;101414.25;5017280;28;45337;-66
2022/07/30 06:41:44;;;;;;;;;9.33;7.67;;;;;29.86;29.95;101423.31;5018677;28;45321;-65
2022/07/30 06:44:09;;;;;;;;;9.00;7.33;;;;;30.20;29.58;101399.31;5018946;28;45265;-65
2022/07/30 06:46:35;;;;;;;;;8.00;8.00;;;;;30.68;29.01;101419.56;5018496;28;45497;-66
2022/07/30 06:49:01;;;;;;;;;8.00;7.00;;;;;30.74;28.79;101430.31;5018466;28;45694;-66
2022/07/30 06:51:26;;;;;;;;;8.00;8.00;;;;;30.46;28.75;101406.72;5017511;28;45313;-66
2022/07/30 06:53:52;;;;;;;;;6.00;6.00;;;;;30.27;28.76;101428.19;5018703;28;45193;-64
2022/07/30 06:56:17;;;;;;;;;10.33;9.00;;;;;30.04;29.09;101417.53;5018410;28;46341;-65
2022/07/30 06:58:43;;;;;;;;;11.00;11.00;;;;;29.75;29.36;101419.59;5018162;28;45453;-66
2022/07/30 07:01:08;;;;;;;;;9.00;8.00;;;;;29.64;29.30;101442.50;5016629;28;45344;-66
2022/07/30 07:03:33;;;;;;;;;6.67;6.67;;;;;29.57;29.33;101439.09;5018418;28;45419;-66
2022/07/30 07:05:59;;;;;;;;;10.33;10.33;;;;;29.54;29.98;101442.34;5018127;28;45672;-65
2022/07/30 07:08:25;;;;;;;;;6.00;6.00;;;;;29.69;29.50;101439.81;5018121;28;45253;-65
2022/07/30 07:10:50;;;;;;;;;9.00;8.00;;;;;29.89;29.79;101445.56;5018020;28;45459;-65
2022/07/30 07:13:16;;;;;;;;;8.67;5.67;;;;;30.03;29.21;101435.00;5018151;28;45233;-65
2022/07/30 07:15:41;;;;;;;;;7.00;6.33;;;;;30.39;28.41;101451.88;5016557;28;47324;-67
2022/07/30 07:18:07;;;;;;;;;8.00;6.00;;;;;30.58;28.01;101445.78;5017821;28;45346;-66
2022/07/30 07:20:33;;;;;;;;;7.33;6.33;;;;;30.69;28.00;101434.94;5017928;28;45423;-65
2022/07/30 07:22:59;;;;;;;;;7.00;7.00;;;;;30.92;27.69;101453.78;5018138;28;45249;-66
2022/07/30 07:25:25;;;;;;;;;8.00;6.33;;;;;29.81;27.29;101262.34;5017615;28;45698;-65
2022/07/30 07:27:50;;;;;;;;;5.67;5.67;;;;;30.97;27.60;101453.81;5032970;28;45483;-64
2022/07/30 07:30:15;;;;;;;;;8.33;8.33;;;;;31.00;27.46;101450.56;5017921;28;45412;-64
2022/07/30 07:32:41;;;;;;;;;10.33;9.00;;;;;31.16;27.58;101455.06;5033433;28;45443;-66
2022/07/30 07:35:07;;;;;;;;;7.67;7.67;;;;;31.40;27.21;101460.19;5017726;28;45327;-66
2022/07/30 07:37:32;;;;;;;;;8.00;7.00;;;;;31.61;26.47;101390.50;5017654;28;45404;-66
2022/07/30 07:39:58;;;;;;;;;9.67;6.67;;;;;32.73;25.76;101456.84;5017726;28;45458;-65
2022/07/30 07:42:23;;;;;;;;;5.00;5.00;;;;;33.10;24.57;101442.81;5017618;28;45464;-67
2022/07/30 07:44:48;;;;;;;;;7.33;7.33;;;;;33.40;24.11;101441.97;5017582;28;46116;-66
2022/07/30 07:47:14;;;;;;;;;8.67;8.00;;;;;33.79;23.82;101453.13;5017534;28;45485;-66
2022/07/30 07:49:40;;;;;;;;;8.33;6.33;;;;;33.92;23.82;101437.13;5016143;28;45535;-65
2022/07/30 07:52:05;;;;;;;;;8.67;6.67;;;;;33.68;23.44;101362.47;5033011;28;45368;-66
2022/07/30 07:54:31;;;;;;;;;7.33;5.33;;;;;34.27;23.27;101447.13;5017404;28;46455;-66
2022/07/30 07:56:57;;;;;;;;;6.67;6.67;;;;;34.30;23.22;101438.28;5017227;28;45418;-66
2022/07/30 07:59:23;;;;;;;;;5.00;5.00;;;;;34.44;23.29;101447.59;5032624;28;45278;-67
2022/07/30 08:01:49;;;;;;;;;6.00;5.00;;;;;34.44;22.98;101431.03;5017582;28;45214;-64
2022/07/30 08:04:15;;;;;;;;;7.00;7.00;;;;;34.57;22.85;101446.13;5017100;28;45255;-65
2022/07/30 08:06:41;;;;;;;;;7.33;5.00;;;;;34.65;22.45;101424.25;5017050;28;45462;-66
2022/07/30 08:09:07;;;;;;;;;8.00;8.00;;;;;34.63;22.45;101418.16;5016961;28;45182;-66
2022/07/30 08:11:32;;;;;;;;;5.33;5.33;;;;;34.68;22.17;101415.38;5017775;28;45581;-66
2022/07/30 08:13:57;;;;;;;;;7.00;7.00;;;;;34.21;22.63;101365.47;5017176;28;46591;-65
2022/07/30 08:16:23;;;;;;;;;7.33;6.33;;;;;34.77;22.71;101429.38;5016989;28;45556;-66
2022/07/30 08:18:48;;;;;;;;;7.33;7.33;;;;;35.11;21.90;101418.31;5017090;28;45484;-66
2022/07/30 08:21:14;;;;;;;;;4.00;4.00;;;;;35.59;21.57;101415.59;5032792;28;45435;-66
2022/07/30 08:23:40;;;;;;;;;4.67;4.67;;;;;36.07;21.18;101432.97;5016846;28;46430;-66
2022/07/30 08:26:05;;;;;;;;;8.00;8.00;;;;;36.45;20.90;101441.31;5016936;28;45320;-67
2022/07/30 08:28:31;;;;;;;;;7.33;5.00;;;;;36.18;20.34;101369.97;5016963;28;45355;-66
2022/07/30 08:30:56;;;;;;;;;5.67;5.67;;;;;36.32;20.46;101426.28;5017142;28;45463;-66
2022/07/30 08:33:21;;;;;;;;;7.67;6.33;;;;;36.39;20.88;101443.31;5015276;28;48537;-66
2022/07/30 08:35:47;;;;;;;;;6.00;5.00;;;;;36.23;20.80;101433.56;5016831;28;45396;-66
2022/07/30 08:38:12;;;;;;;;;10.00;8.67;;;;;36.05;20.39;101453.78;5031754;28;45412;-67
2022/07/30 08:40:38;;;;;;;;;5.33;5.33;;;;;35.35;20.50;101383.25;5017186;28;45459;-65
2022/07/30 08:43:06;;;;;;;;;8.00;7.00;;;;;35.10;21.06;101400.09;5031534;28;47555;-67
2022/07/30 08:45:34;;;;;;;;;5.67;5.33;;;;;35.05;20.91;101459.03;5016673;28;45340;-66
2022/07/30 08:48:00;;;;;;;;;5.00;5.00;;;;;35.00;21.31;101460.97;5016850;28;45345;-67
2022/07/30 08:50:27;;;;;;;;;8.00;7.00;;;;;34.94;21.15;101429.81;5015306;28;45528;-65
2022/07/30 08:52:54;;;;;;;;;6.33;6.33;;;;;35.20;21.32;101455.25;5016355;28;46834;-66
2022/07/30 08:55:21;;;;;;;;;6.00;6.00;;;;;35.59;20.97;101454.31;5016559;28;45497;-68
2022/07/30 08:57:47;;;;;;;;;7.00;7.00;;;;;35.96;20.47;101454.44;5016680;28;45279;-65
2022/07/30 09:00:13;;;;;;;;;7.00;6.00;;;;;36.02;20.31;101465.41;5016548;28;45509;-66
2022/07/30 09:02:38;;;;;;;;;7.00;5.33;;;;;35.95;20.24;101389.13;5031643;28;48719;-66
2022/07/30 09:05:05;;;;;;;;;7.33;7.33;;;;;36.44;19.76;101376.78;5016495;28;45367;-67
2022/07/30 09:07:32;;;;;;;;;6.67;6.67;;;;;37.32;18.66;101447.03;5016595;28;45249;-66
2022/07/30 09:09:57;;;;;;;;;6.00;4.00;;;;;37.78;18.30;101428.66;5016540;28;45537;-67
2022/07/30 09:12:40;;;;;;;;;6.00;6.00;;;;;38.51;18.07;101435.88;5016298;28;46416;-66
2022/07/30 09:15:11;;;;;;;;;6.67;6.67;;;;;39.08;16.55;101448.09;5018863;28;46301;-66
2022/07/30 09:17:46;;;;;;;;;5.67;5.67;;;;;39.64;16.59;101456.84;5019792;28;45319;-67
2022/07/30 09:20:11;;;;;;;;;6.67;6.67;;;;;40.12;15.65;101460.41;5018609;28;45341;-66
2022/07/30 09:22:46;;;;;;;;;5.67;5.00;;;;;40.39;15.33;101394.38;5034670;28;48108;-67
2022/07/30 09:25:12;;;;;;;;;9.00;8.00;;;;;41.48;14.91;101436.59;5019555;28;45352;-66
2022/07/30 09:27:46;;;;;;;;;5.00;5.00;;;;;41.90;13.72;101387.25;5018320;28;45387;-67
2022/07/30 09:30:11;;;;;;;;;5.00;5.00;;;;;42.08;13.92;101438.22;5020031;28;45278;-65
2022/07/30 09:32:54;;;;;;;;;7.00;5.33;;;;;41.77;13.78;101455.34;5019461;28;45672;-67
2022/07/30 09:35:21;;;;;;;;;5.00;5.00;;;;;42.01;14.35;101465.03;5019452;28;45201;-67
2022/07/30 09:37:58;;;;;;;;;6.00;6.00;;;;;42.16;14.51;101472.84;5034905;28;45631;-66
2022/07/30 09:40:24;;;;;;;;;5.00;5.00;;;;;42.71;13.30;101457.75;5035084;28;45379;-67
2022/07/30 09:43:02;;;;;;;;;6.33;6.33;;;;;43.57;12.41;101453.13;5019156;28;45595;-66
2022/07/30 09:45:27;;;;;;;;;4.67;4.67;;;;;44.17;12.13;101455.06;5018090;28;46240;-66
2022/07/30 09:47:52;;;;;;;;;4.00;4.00;;;;;44.94;11.41;101456.88;5019457;28;45425;-66
2022/07/30 09:50:19;;;;;;;;;4.00;3.67;;;;;45.23;11.32;101456.41;5019176;28;45232;-67
2022/07/30 09:52:46;;;;;;;;;2.33;2.33;;;;;45.49;10.70;101459.53;5019159;28;45707;-66
2022/07/30 09:55:13;;;;;;;;;5.00;4.00;;;;;45.70;10.37;101464.06;5019054;28;45389;-67
2022/07/30 09:57:55;;;;;;;;;6.00;5.33;;;;;45.91;9.71;101463.72;5019503;28;45476;-66
2022/07/30 10:00:23;;;;;;;;;3.67;3.67;;;;;46.14;10.26;101459.03;5019485;28;45217;-66
2022/07/30 10:02:50;;;;;;;;;3.67;3.67;;;;;46.54;10.37;101464.31;5018912;28;46894;-67
2022/07/30 10:05:20;;;;;;;;;4.67;3.67;;;;;46.53;10.16;101443.00;5034095;28;45434;-66
2022/07/30 10:07:53;;;;;;;;;4.67;4.67;;;;;46.34;10.38;101443.78;5018967;28;45280;-68
2022/07/30 10:10:25;;;;;;;;;4.00;4.00;;;;;45.83;10.91;101454.28;5018980;28;45537;-66
2022/07/30 10:12:59;;;;;;;;;4.00;4.00;;;;;44.98;11.53;101452.16;5017311;28;48024;-66
2022/07/30 10:15:29;;;;;;;;;7.67;7.33;;;;;43.88;12.24;101447.78;5017329;28;45386;-67
2022/07/30 10:17:55;;;;;;;;;4.67;4.67;;;;;43.09;12.22;101451.94;5018753;28;45217;-66
2022/07/30 10:20:21;;;;;;;;;3.67;3.67;;;;;42.01;13.22;101448.25;5019238;28;45462;-67
2022/07/30 10:22:48;;;;;;;;;5.00;4.33;;;;;41.26;14.32;101448.84;5018692;28;46435;-66
2022/07/30 10:25:16;;;;;;;;;6.00;6.00;;;;;40.69;14.86;101457.47;5032714;28;45491;-68
2022/07/30 10:27:43;;;;;;;;;6.33;5.33;;;;;40.06;14.59;101445.00;5018402;28;45491;-66
2022/07/30 10:30:09;;;;;;;;;7.33;7.33;;;;;39.44;15.05;101439.56;5034166;28;45521;-68
2022/07/30 10:32:36;;;;;;;;;4.00;4.00;;;;;38.79;15.84;101442.16;5018630;28;45714;-67
2022/07/30 10:35:02;;;;;;;;;5.00;5.00;;;;;38.40;16.35;101449.19;5018512;28;45445;-66
2022/07/30 10:37:34;;;;;;;;;5.33;5.33;;;;;37.89;16.60;101430.09;5018574;28;45500;-65
2022/07/30 10:40:34;;;;;;;;;5.00;3.67;;;;;37.25;17.32;101443.00;5017634;28;45302;-67
2022/07/30 10:43:31;;;;;;;;;6.33;5.00;;;;;36.57;17.96;101430.56;5001445;28;45700;-66
2022/07/30 10:46:10;;;;;;;;;4.33;4.00;;;;;35.91;18.30;101404.69;5016885;28;45366;-66
2022/07/30 10:48:36;;;;;;;;;4.00;4.00;;;;;35.76;19.01;101415.94;5018328;28;45282;-68
2022/07/30 10:51:01;;;;;;;;;4.33;4.33;;;;;35.54;18.95;101423.97;5018002;28;45364;-64
2022/07/30 10:53:45;;;;;;;;;14.67;13.00;;;;;35.28;19.55;101417.88;5016821;28;48265;-67
2022/07/30 10:56:17;;;;;;;;;8.00;8.00;;;;;35.02;19.98;101425.59;5018575;28;45520;-67
2022/07/30 10:59:06;;;;;;;;;7.67;7.00;;;;;34.78;20.33;101440.16;5016526;28;46336;-67
2022/07/30 11:01:47;;;;;;;;;5.00;5.00;;;;;34.42;20.79;101428.53;5033759;28;45275;-65
2022/07/30 11:04:26;;;;;;;;;8.33;7.33;;;;;34.16;21.33;101433.38;5016689;28;46619;-67
2022/07/30 11:07:21;;;;;;;;;7.00;5.00;;;;;33.42;21.49;101353.47;5017954;28;45292;-66
2022/07/30 11:09:48;;;;;;;;;8.33;8.33;;;;;33.46;22.50;101415.22;5016833;28;45467;-65
2022/07/30 11:12:13;;;;;;;;;5.00;5.00;;;;;33.36;22.36;101421.56;5033553;28;45531;-67
2022/07/30 11:14:44;;;;;;;;;10.00;7.00;;;;;33.18;22.92;101430.41;5017886;28;45717;-66
2022/07/30 11:17:17;;;;;;;;;11.00;9.33;;;;;32.91;22.65;101431.56;5017830;28;45428;-66
2022/07/30 11:20:00;;;;;;;;;12.00;11.00;;;;;32.82;23.12;101418.59;5018335;28;45498;-68
2022/07/30 11:22:30;;;;;;;;;5.00;5.00;;;;;32.30;22.93;101354.44;5018087;28;45467;-67
2022/07/30 11:24:56;;;;;;;;;6.67;5.67;;;;;32.54;22.82;101409.75;5032960;28;47464;-67
2022/07/30 11:27:40;;;;;;;;;7.67;7.67;;;;;32.44;23.71;101403.41;5017687;28;45516;-66